Time;durP1;ratioP1;P1;durP2;ratioP2;P2;SDS_P1;SDS_P2;PMS_P1;PMS_P2;Temp;Humidity;BMP_temperature;BMP_pressure;BME280_temperature;BME280_humidity;BME280_pressure;Samples;Min_cycle;Max_cycle;Signal;HPM_P1;HPM_P2
2022/02/27 00:02:02;;;;;;;49.58;19.17;;;;;;;-145.73;100.00;61044.97;5074722;28;20117;-73
2022/02/27 00:04:30;;;;;;;46.50;18.27;;;;;;;-145.73;100.00;61044.97;5075782;28;20075;-73
2022/02/27 00:06:58;;;;;;;52.55;18.83;;;;;;;-145.73;100.00;61044.97;5083312;28;20102;-74
2022/02/27 00:09:28;;;;;;;54.88;19.58;;;;;;;-145.73;100.00;61044.97;5077624;28;20048;-75
2022/02/27 00:11:55;;;;;;;50.63;19.83;;;;;;;-145.73;100.00;61044.97;5078468;28;20048;-73
2022/02/27 00:14:24;;;;;;;46.22;17.67;;;;;;;-145.73;100.00;61044.97;5077502;28;20052;-73
2022/02/27 00:16:53;;;;;;;45.50;17.83;;;;;;;-145.73;100.00;61044.97;5079257;28;20043;-74
2022/02/27 00:19:23;;;;;;;44.33;19.33;;;;;;;-145.73;100.00;61044.97;5079989;28;20048;-75
2022/02/27 00:21:51;;;;;;;44.35;17.85;;;;;;;-145.73;100.00;61044.97;5076384;28;20051;-75
2022/02/27 00:24:19;;;;;;;57.40;19.95;;;;;;;-145.73;100.00;61044.97;5072580;28;20048;-75
2022/02/27 00:26:47;;;;;;;45.75;18.30;;;;;;;-145.73;100.00;61044.97;5079531;28;20089;-75
2022/02/27 00:29:16;;;;;;;49.25;18.73;;;;;;;-145.73;100.00;61044.97;5088133;28;20523;-75
2022/02/27 00:31:45;;;;;;;49.70;18.63;;;;;;;-145.73;100.00;61044.97;5079339;28;20464;-75
2022/02/27 00:34:13;;;;;;;43.38;18.08;;;;;;;-145.73;100.00;61044.97;5077081;28;20044;-75
2022/02/27 00:36:41;;;;;;;41.25;16.30;;;;;;;-145.73;100.00;61044.97;5082646;28;20048;-75
2022/02/27 00:39:10;;;;;;;45.47;17.67;;;;;;;-145.73;100.00;61044.97;5080250;28;20122;-75
2022/02/27 00:41:39;;;;;;;44.08;17.85;;;;;;;-145.73;100.00;61044.97;5084678;28;20078;-75
2022/02/27 00:44:07;;;;;;;44.10;18.42;;;;;;;-145.73;100.00;61044.97;5080698;28;20040;-75
2022/02/27 00:46:39;;;;;;;48.45;19.13;;;;;;;-145.73;100.00;61044.97;5080544;28;20547;-75
2022/02/27 00:49:08;;;;;;;45.35;20.08;;;;;;;-145.73;100.00;61044.97;5079069;28;20044;-76
2022/02/27 00:51:36;;;;;;;49.20;18.90;;;;;;;-145.73;100.00;61044.97;5078224;28;20166;-75
2022/02/27 00:54:04;;;;;;;53.78;19.83;;;;;;;-145.73;100.00;61044.97;5080248;28;20555;-76
2022/02/27 00:56:32;;;;;;;42.78;17.25;;;;;;;-145.73;100.00;61044.97;5082726;28;20134;-75
2022/02/27 00:59:00;;;;;;;48.95;17.13;;;;;;;-145.73;100.00;61044.97;5084458;28;20066;-76
2022/02/27 01:01:27;;;;;;;46.40;16.85;;;;;;;-145.73;100.00;61044.97;5080069;28;20456;-73
2022/02/27 01:03:56;;;;;;;43.10;17.00;;;;;;;-145.73;100.00;61044.97;5078852;28;20492;-74
2022/02/27 01:06:27;;;;;;;37.83;16.88;;;;;;;-145.73;100.00;61044.97;5079538;28;20048;-73
2022/02/27 01:08:58;;;;;;;49.58;18.90;;;;;;;-145.73;100.00;61044.97;5076765;28;20048;-73
2022/02/27 01:11:30;;;;;;;46.15;18.95;;;;;;;-145.73;100.00;61044.97;5082445;28;20075;-74
2022/02/27 01:13:58;;;;;;;39.88;15.35;;;;;;;-145.73;100.00;61044.97;5081422;28;20142;-73
2022/02/27 01:16:26;;;;;;;46.40;18.27;;;;;;;-145.73;100.00;61044.97;5080581;28;20052;-73
2022/02/27 01:18:54;;;;;;;41.97;19.98;;;;;;;-145.73;100.00;61044.97;5076990;28;20044;-73
2022/02/27 01:21:22;;;;;;;42.80;18.25;;;;;;;-145.73;100.00;61044.97;5078966;28;20044;-73
2022/02/27 01:23:51;;;;;;;39.10;16.85;;;;;;;-145.73;100.00;61044.97;5079438;28;20539;-73
2022/02/27 01:26:19;;;;;;;44.08;17.83;;;;;;;-145.73;100.00;61044.97;5079790;28;20136;-73
2022/02/27 01:28:48;;;;;;;48.25;18.50;;;;;;;-145.73;100.00;61044.97;5080824;28;20048;-73
2022/02/27 01:31:16;;;;;;;38.03;15.70;;;;;;;-145.73;100.00;61044.97;5081692;28;20083;-73
2022/02/27 01:33:44;;;;;;;41.20;18.65;;;;;;;-145.73;100.00;61044.97;5076523;28;20184;-73
2022/02/27 01:36:12;;;;;;;38.25;16.48;;;;;;;-145.73;100.00;61044.97;5082569;28;20044;-75
2022/02/27 01:38:39;;;;;;;37.72;16.10;;;;;;;-145.73;100.00;61044.97;5079162;28;20063;-75
2022/02/27 01:41:08;;;;;;;39.80;17.38;;;;;;;-145.73;100.00;61044.97;5081362;28;20048;-75
2022/02/27 01:43:37;;;;;;;46.78;16.83;;;;;;;-145.73;100.00;61044.97;5077777;28;20096;-75
2022/02/27 01:46:07;;;;;;;49.63;18.20;;;;;;;-145.73;100.00;61044.97;5078803;28;20563;-75
2022/02/27 01:48:35;;;;;;;46.50;17.20;;;;;;;-145.73;100.00;61044.97;5080454;28;20044;-75
2022/02/27 01:51:03;;;;;;;40.28;15.05;;;;;;;-145.73;100.00;61044.97;5076827;28;20040;-76
2022/02/27 01:53:31;;;;;;;44.50;16.02;;;;;;;-145.73;100.00;61044.97;5074236;28;20052;-75
2022/02/27 01:55:58;;;;;;;43.55;15.75;;;;;;;-145.73;100.00;61044.97;5075740;28;20062;-75
2022/02/27 01:58:28;;;;;;;43.95;16.33;;;;;;;-145.73;100.00;61044.97;5080905;28;20047;-78
2022/02/27 02:00:57;;;;;;;46.80;17.02;;;;;;;-145.73;100.00;61044.97;5078637;28;20411;-75
2022/02/27 02:03:26;;;;;;;48.67;16.98;;;;;;;-145.73;100.00;61044.97;5081613;28;20131;-75
2022/02/27 02:05:55;;;;;;;31.27;14.65;;;;;;;-145.73;100.00;61044.97;5080844;28;20122;-75
2022/02/27 02:08:23;;;;;;;30.77;14.27;;;;;;;-145.73;100.00;61044.97;5080200;28;20048;-75
2022/02/27 02:10:51;;;;;;;34.97;15.88;;;;;;;-145.73;100.00;61044.97;5079085;28;20052;-75
2022/02/27 02:13:19;;;;;;;43.60;15.45;;;;;;;-145.73;100.00;61044.97;5078757;28;20142;-75
2022/02/27 02:15:55;;;;;;;37.45;15.48;;;;;;;-145.73;100.00;61044.97;5082975;28;20148;-75
2022/02/27 02:18:23;;;;;;;36.72;15.40;;;;;;;-145.73;100.00;61044.97;5079020;28;20121;-75
2022/02/27 02:20:52;;;;;;;42.08;16.60;;;;;;;-145.73;100.00;61044.97;5080365;28;20040;-75
2022/02/27 02:23:20;;;;;;;34.67;14.82;;;;;;;-145.73;100.00;61044.97;5077419;28;20052;-75
2022/02/27 02:25:49;;;;;;;35.30;14.02;;;;;;;-145.73;100.00;61044.97;5079977;28;20043;-75
2022/02/27 02:28:17;;;;;;;35.63;15.38;;;;;;;-145.73;100.00;61044.97;5079234;28;20089;-75
2022/02/27 02:30:50;;;;;;;43.33;15.38;;;;;;;-145.73;100.00;61044.97;5079856;28;20058;-75
2022/02/27 02:33:18;;;;;;;38.30;14.63;;;;;;;-145.73;100.00;61044.97;5080930;28;20044;-75
2022/02/27 02:35:46;;;;;;;39.20;14.20;;;;;;;-145.73;100.00;61044.97;5077849;28;20055;-75
2022/02/27 02:38:16;;;;;;;32.25;13.68;;;;;;;-145.73;100.00;61044.97;5081023;28;20044;-76
2022/02/27 02:40:45;;;;;;;30.65;13.27;;;;;;;-145.73;100.00;61044.97;5079278;28;20127;-75
2022/02/27 02:43:13;;;;;;;33.78;13.70;;;;;;;-145.73;100.00;61044.97;5077556;28;20048;-75
2022/02/27 02:45:41;;;;;;;33.75;13.82;;;;;;;-145.73;100.00;61044.97;5078002;28;20648;-76
2022/02/27 02:48:08;;;;;;;36.38;14.52;;;;;;;-145.73;100.00;61044.97;5077411;28;20060;-75
2022/02/27 02:50:36;;;;;;;37.50;16.10;;;;;;;-145.73;100.00;61044.97;5082144;28;20048;-75
2022/02/27 02:53:04;;;;;;;34.47;13.88;;;;;;;-145.73;100.00;61044.97;5074112;28;20128;-75
2022/02/27 02:55:33;;;;;;;33.10;15.55;;;;;;;-145.73;100.00;61044.97;5080989;28;20534;-75
2022/02/27 02:58:01;;;;;;;29.25;14.70;;;;;;;-145.73;100.00;61044.97;5071884;28;20083;-73
2022/02/27 03:00:29;;;;;;;35.00;13.80;;;;;;;-145.73;100.00;61044.97;5072072;28;20048;-74
2022/02/27 03:02:57;;;;;;;31.67;13.40;;;;;;;-145.73;100.00;61044.97;5082306;28;20140;-73
2022/02/27 03:05:25;;;;;;;35.67;13.95;;;;;;;-145.73;100.00;61044.97;5074986;28;20166;-73
2022/02/27 03:07:53;;;;;;;31.10;13.82;;;;;;;-145.73;100.00;61044.97;5076247;28;20066;-73
2022/02/27 03:10:21;;;;;;;32.80;14.95;;;;;;;-145.73;100.00;61044.97;5077823;28;20056;-73
2022/02/27 03:12:51;;;;;;;31.65;14.30;;;;;;;-145.73;100.00;61044.97;5083066;28;20079;-74
2022/02/27 03:15:19;;;;;;;35.05;13.35;;;;;;;-145.73;100.00;61044.97;5080256;28;20460;-76
2022/02/27 03:17:48;;;;;;;32.40;12.63;;;;;;;-145.73;100.00;61044.97;5077533;28;20056;-76
2022/02/27 03:20:18;;;;;;;26.55;12.50;;;;;;;-145.73;100.00;61044.97;5081506;28;20482;-76
2022/02/27 03:22:46;;;;;;;31.55;14.25;;;;;;;-145.73;100.00;61044.97;5075724;28;20135;-76
2022/02/27 03:25:14;;;;;;;33.05;13.98;;;;;;;-145.73;100.00;61044.97;5079161;28;20036;-75
2022/02/27 03:27:42;;;;;;;30.05;13.25;;;;;;;-145.73;100.00;61044.97;5077226;28;20492;-77
2022/02/27 03:30:11;;;;;;;26.23;13.07;;;;;;;-145.73;100.00;61044.97;5078871;28;20509;-77
2022/02/27 03:32:39;;;;;;;33.80;13.27;;;;;;;-145.73;100.00;61044.97;5077815;28;20040;-76
2022/02/27 03:35:07;;;;;;;27.70;13.25;;;;;;;-145.73;100.00;61044.97;5077631;28;20472;-78
2022/02/27 03:37:59;;;;;;;28.80;13.57;;;;;;;-145.73;100.00;61044.97;5081369;28;20169;-77
2022/02/27 03:40:28;;;;;;;33.35;13.02;;;;;;;-145.73;100.00;61044.97;5073525;28;20044;-75
2022/02/27 03:42:56;;;;;;;25.17;12.93;;;;;;;-145.73;100.00;61044.97;5081700;28;20039;-75
2022/02/27 03:45:25;;;;;;;31.20;13.73;;;;;;;-145.73;100.00;61044.97;5073482;28;20566;-75
2022/02/27 03:47:54;;;;;;;28.45;12.95;;;;;;;-145.73;100.00;61044.97;5079410;28;20123;-75
2022/02/27 03:50:23;;;;;;;30.85;12.80;;;;;;;-145.73;100.00;61044.97;5078654;28;20048;-75
2022/02/27 03:53:16;;;;;;;26.52;11.63;;;;;;;-145.73;100.00;61044.97;5076718;28;20046;-75
2022/02/27 03:55:43;;;;;;;32.78;13.13;;;;;;;-145.73;100.00;61044.97;5080532;28;20495;-77
2022/02/27 03:58:11;;;;;;;26.60;11.63;;;;;;;-145.73;100.00;61044.97;5075513;28;20119;-74
2022/02/27 04:00:41;;;;;;;18.20;11.82;;;;;;;-145.73;100.00;61044.97;5077186;28;20370;-77
2022/02/27 04:03:10;;;;;;;25.55;12.45;;;;;;;-145.73;100.00;61044.97;5075949;28;20082;-76
2022/02/27 04:05:38;;;;;;;30.35;12.55;;;;;;;-145.73;100.00;61044.97;5076255;28;20048;-75
2022/02/27 04:08:07;;;;;;;24.73;11.55;;;;;;;-145.73;100.00;61044.97;5081031;28;20097;-74
2022/02/27 04:10:35;;;;;;;29.85;13.15;;;;;;;-145.73;100.00;61044.97;5081852;28;20490;-74
2022/02/27 04:13:03;;;;;;;31.33;12.52;;;;;;;-145.73;100.00;61044.97;5083316;28;20044;-73
2022/02/27 04:15:31;;;;;;;22.13;12.75;;;;;;;-145.73;100.00;61044.97;5082882;28;20097;-74
2022/02/27 04:18:00;;;;;;;29.17;12.80;;;;;;;-145.73;100.00;61044.97;5081021;28;20556;-74
2022/02/27 04:20:28;;;;;;;22.70;12.52;;;;;;;-145.73;100.00;61044.97;5079211;28;20051;-74
2022/02/27 04:22:56;;;;;;;22.50;11.90;;;;;;;-145.73;100.00;61044.97;5081656;28;20160;-74
2022/02/27 04:25:25;;;;;;;23.75;11.32;;;;;;;-145.73;100.00;61044.97;5077972;28;20052;-74
2022/02/27 04:27:53;;;;;;;26.33;12.02;;;;;;;-145.73;100.00;61044.97;5082106;28;20136;-74
2022/02/27 04:30:21;;;;;;;27.85;12.80;;;;;;;-145.73;100.00;61044.97;5081063;28;20125;-74
2022/02/27 04:32:49;;;;;;;19.38;10.57;;;;;;;-145.73;100.00;61044.97;5082033;28;20040;-74
2022/02/27 04:35:19;;;;;;;24.48;13.07;;;;;;;-145.73;100.00;61044.97;5078917;28;20044;-74
2022/02/27 04:37:48;;;;;;;24.00;11.85;;;;;;;-145.73;100.00;61044.97;5079949;28;20089;-75
2022/02/27 04:40:16;;;;;;;20.63;11.23;;;;;;;-145.73;100.00;61044.97;5081883;28;20055;-75
2022/02/27 04:42:44;;;;;;;22.70;11.00;;;;;;;-145.73;100.00;61044.97;5081535;28;20059;-75
2022/02/27 04:45:11;;;;;;;26.08;12.85;;;;;;;-145.73;100.00;61044.97;5080320;28;20070;-75
2022/02/27 04:47:39;;;;;;;21.83;10.90;;;;;;;-145.73;100.00;61044.97;5081926;28;20050;-75
2022/02/27 04:50:08;;;;;;;25.35;12.45;;;;;;;-145.73;100.00;61044.97;5080028;28;20084;-75
2022/02/27 04:53:01;;;;;;;26.08;12.45;;;;;;;-145.73;100.00;61044.97;5079720;28;20055;-75
2022/02/27 04:55:29;;;;;;;22.92;11.32;;;;;;;-145.73;100.00;61044.97;5080217;28;20210;-74
2022/02/27 04:57:57;;;;;;;21.13;10.93;;;;;;;-145.73;100.00;61044.97;5080121;28;20058;-75
2022/02/27 05:00:25;;;;;;;21.27;11.55;;;;;;;-145.73;100.00;61044.97;5077479;28;20135;-75
2022/02/27 05:02:53;;;;;;;22.00;11.68;;;;;;;-145.73;100.00;61044.97;5077301;28;20081;-75
2022/02/27 05:05:21;;;;;;;24.83;11.38;;;;;;;-145.73;100.00;61044.97;5081049;28;20052;-75
2022/02/27 05:07:49;;;;;;;23.45;10.80;;;;;;;-145.73;100.00;61044.97;5076790;28;20063;-75
2022/02/27 05:10:19;;;;;;;19.60;11.95;;;;;;;-145.73;100.00;61044.97;5083288;28;20187;-75
2022/02/27 05:12:47;;;;;;;24.40;12.20;;;;;;;-145.73;100.00;61044.97;5080565;28;20052;-75
2022/02/27 05:15:15;;;;;;;21.77;11.93;;;;;;;-145.73;100.00;61044.97;5083655;28;20127;-75
2022/02/27 05:17:42;;;;;;;23.77;12.40;;;;;;;-145.73;100.00;61044.97;5080259;28;20496;-75
2022/02/27 05:20:12;;;;;;;28.60;13.20;;;;;;;-145.73;100.00;61044.97;5076477;28;20082;-75
2022/02/27 05:22:44;;;;;;;19.58;11.20;;;;;;;-145.73;100.00;61044.97;5075732;28;20059;-75
2022/02/27 05:25:12;;;;;;;23.70;10.95;;;;;;;-145.73;100.00;61044.97;5080873;28;20079;-75
2022/02/27 05:27:42;;;;;;;23.70;12.73;;;;;;;-145.73;100.00;61044.97;5079761;28;20120;-74
2022/02/27 05:30:11;;;;;;;18.67;12.25;;;;;;;-145.73;100.00;61044.97;5080892;28;20044;-74
2022/02/27 05:32:38;;;;;;;20.38;11.60;;;;;;;-145.73;100.00;61044.97;5078105;28;20043;-74
2022/02/27 05:35:07;;;;;;;26.27;12.35;;;;;;;-145.73;100.00;61044.97;5080232;28;20507;-74
2022/02/27 05:37:35;;;;;;;24.33;12.35;;;;;;;-145.73;100.00;61044.97;5079955;28;20139;-74
2022/02/27 05:40:04;;;;;;;22.27;11.70;;;;;;;-145.73;100.00;61044.97;5073058;28;20543;-75
2022/02/27 05:42:32;;;;;;;22.52;12.38;;;;;;;-145.73;100.00;61044.97;5079578;28;20044;-74
2022/02/27 05:45:01;;;;;;;21.05;12.20;;;;;;;-145.73;100.00;61044.97;5078605;28;20126;-73
2022/02/27 05:47:29;;;;;;;19.92;12.02;;;;;;;-145.73;100.00;61044.97;5077874;28;20048;-75
2022/02/27 05:49:57;;;;;;;27.42;12.70;;;;;;;-145.73;100.00;61044.97;5081147;28;20115;-74
2022/02/27 05:52:25;;;;;;;22.15;12.60;;;;;;;-145.73;100.00;61044.97;5076799;28;20129;-74
2022/02/27 05:54:52;;;;;;;20.65;11.40;;;;;;;-145.73;100.00;61044.97;5077881;28;20088;-74
2022/02/27 05:57:20;;;;;;;30.55;12.88;;;;;;;-145.73;100.00;61044.97;5079012;28;20118;-74
2022/02/27 05:59:48;;;;;;;21.00;11.77;;;;;;;-145.73;100.00;61044.97;5079547;28;20051;-74
2022/02/27 06:02:18;;;;;;;20.35;13.02;;;;;;;-145.73;100.00;61044.97;5077962;28;20492;-73
2022/02/27 06:04:47;;;;;;;20.33;11.57;;;;;;;-145.73;100.00;61044.97;5079960;28;20056;-74
2022/02/27 06:07:16;;;;;;;22.50;13.43;;;;;;;-145.73;100.00;61044.97;5076476;28;20040;-74
2022/02/27 06:09:44;;;;;;;26.85;12.35;;;;;;;-145.73;100.00;61044.97;5079582;28;20078;-74
2022/02/27 06:12:13;;;;;;;20.27;13.10;;;;;;;-145.73;100.00;61044.97;5079953;28;20543;-73
2022/02/27 06:14:41;;;;;;;26.80;12.95;;;;;;;-145.73;100.00;61044.97;5074650;28;20056;-74
2022/02/27 06:17:09;;;;;;;20.25;11.13;;;;;;;-145.73;100.00;61044.97;5078182;28;20526;-74
2022/02/27 06:19:38;;;;;;;20.23;11.73;;;;;;;-145.73;100.00;61044.97;5080043;28;20579;-75
2022/02/27 06:22:06;;;;;;;24.35;12.95;;;;;;;-145.73;100.00;61044.97;5073152;28;20537;-74
2022/02/27 06:24:34;;;;;;;23.50;11.10;;;;;;;-145.73;100.00;61044.97;5078006;28;20122;-74
2022/02/27 06:27:03;;;;;;;19.83;11.60;;;;;;;-145.73;100.00;61044.97;5077386;28;20321;-74
2022/02/27 06:29:30;;;;;;;28.15;12.60;;;;;;;-145.73;100.00;61044.97;5079411;28;20475;-74
2022/02/27 06:31:59;;;;;;;21.40;11.45;;;;;;;-145.73;100.00;61044.97;5079017;28;20414;-74
2022/02/27 06:34:28;;;;;;;22.30;10.90;;;;;;;-145.73;100.00;61044.97;5076449;28;20456;-76
2022/02/27 06:36:57;;;;;;;18.50;11.68;;;;;;;-145.73;100.00;61044.97;5080131;28;20135;-74
2022/02/27 06:39:27;;;;;;;28.02;13.65;;;;;;;-145.73;100.00;61044.97;5081505;28;20315;-74
2022/02/27 06:41:55;;;;;;;18.52;11.77;;;;;;;-145.73;100.00;61044.97;5078423;28;20051;-75
2022/02/27 06:44:23;;;;;;;23.45;11.77;;;;;;;-145.73;100.00;61044.97;5082088;28;20145;-73
2022/02/27 06:46:51;;;;;;;16.17;10.70;;;;;;;-145.73;100.00;61044.97;5073617;28;20048;-73
2022/02/27 06:49:19;;;;;;;16.77;10.27;;;;;;;-145.73;100.00;61044.97;5085332;28;20058;-73
2022/02/27 06:51:47;;;;;;;19.58;11.65;;;;;;;-145.73;100.00;61044.97;5078244;28;20174;-74
2022/02/27 06:54:21;;;;;;;20.95;11.23;;;;;;;-145.73;100.00;61044.97;5076390;28;20890;-74
2022/02/27 06:56:50;;;;;;;28.38;11.45;;;;;;;-145.73;100.00;61044.97;5079878;28;20494;-74
2022/02/27 06:59:20;;;;;;;19.35;11.40;;;;;;;-145.73;100.00;61044.97;5077212;28;20089;-75
2022/02/27 07:01:48;;;;;;;19.83;10.80;;;;;;;-145.73;100.00;61044.97;5079604;28;20047;-74
2022/02/27 07:04:16;;;;;;;19.08;11.45;;;;;;;-145.73;100.00;61044.97;5079122;28;20040;-75
2022/02/27 07:06:45;;;;;;;15.55;10.30;;;;;;;-145.73;100.00;61044.97;5083915;28;20070;-74
2022/02/27 07:09:14;;;;;;;17.90;9.52;;;;;;;-145.73;100.00;61044.97;5074364;28;20052;-76
2022/02/27 07:11:49;;;;;;;19.15;10.35;;;;;;;-145.73;100.00;61044.97;5080934;28;20088;-75
2022/02/27 07:14:16;;;;;;;24.92;10.70;;;;;;;-145.73;100.00;61044.97;5078185;28;20043;-74
2022/02/27 07:16:45;;;;;;;19.27;11.18;;;;;;;-145.73;100.00;61044.97;5078557;28;20066;-75
2022/02/27 07:19:18;;;;;;;18.30;9.18;;;;;;;-145.73;100.00;61044.97;5076345;28;20423;-75
2022/02/27 07:21:46;;;;;;;17.48;9.95;;;;;;;-145.73;100.00;61044.97;5076493;28;20089;-75
2022/02/27 07:24:15;;;;;;;24.48;11.45;;;;;;;-145.73;100.00;61044.97;5083458;28;20216;-75
2022/02/27 07:26:51;;;;;;;16.48;10.70;;;;;;;-145.73;100.00;61044.97;5077221;28;20052;-75
2022/02/27 07:29:22;;;;;;;16.73;9.48;;;;;;;-145.73;100.00;61044.97;5076741;28;20052;-76
2022/02/27 07:31:52;;;;;;;21.48;9.98;;;;;;;-145.73;100.00;61044.97;5074951;28;20230;-75
2022/02/27 07:34:20;;;;;;;15.68;10.18;;;;;;;-145.73;100.00;61044.97;5077537;28;20055;-74
2022/02/27 07:36:51;;;;;;;16.52;9.57;;;;;;;-145.73;100.00;61044.97;5080163;28;20075;-74
2022/02/27 07:39:20;;;;;;;19.77;9.30;;;;;;;-145.73;100.00;61044.97;5079930;28;20404;-75
2022/02/27 07:41:49;;;;;;;25.48;10.25;;;;;;;-145.73;100.00;61044.97;5077819;28;20431;-75
2022/02/27 07:52:03;;;;;;;19.70;9.52;;;;;;;-145.73;100.00;61044.97;5008342;28;20140;-73
2022/02/27 07:54:31;;;;;;;23.90;9.88;;;;;;;-145.73;100.00;61044.97;5018806;28;20100;-75
2022/02/27 07:56:59;;;;;;;15.15;9.05;;;;;;;-145.73;100.00;61044.97;5020949;28;20044;-73
2022/02/27 07:59:30;;;;;;;17.88;9.13;;;;;;;-145.73;100.00;61044.97;5020472;28;20057;-73
2022/02/27 08:01:58;;;;;;;16.65;8.50;;;;;;;-145.73;100.00;61044.97;5023504;28;20045;-74
2022/02/27 08:04:29;;;;;;;17.25;9.15;;;;;;;-145.73;100.00;61044.97;5018475;28;20053;-75
2022/02/27 08:06:58;;;;;;;16.67;8.80;;;;;;;-145.73;100.00;61044.97;5021152;28;20619;-75
2022/02/27 08:09:26;;;;;;;17.73;9.05;;;;;;;-145.73;100.00;61044.97;5022327;28;20273;-74
2022/02/27 08:11:54;;;;;;;15.85;8.95;;;;;;;-145.73;100.00;61044.97;5015842;28;20118;-73
2022/02/27 08:14:22;;;;;;;12.50;8.02;;;;;;;-145.73;100.00;61044.97;5018178;28;20454;-75
2022/02/27 08:16:51;;;;;;;19.45;8.73;;;;;;;-145.73;100.00;61044.97;5019840;28;20041;-74
2022/02/27 08:19:20;;;;;;;19.40;8.68;;;;;;;-145.73;100.00;61044.97;5020778;28;20084;-73
2022/02/27 08:21:48;;;;;;;13.80;7.47;;;;;;;-145.73;100.00;61044.97;5019543;28;20582;-73
2022/02/27 08:24:16;;;;;;;20.33;8.90;;;;;;;-145.73;100.00;61044.97;5024639;28;20037;-73
2022/02/27 08:26:44;;;;;;;19.60;7.38;;;;;;;-145.73;100.00;61044.97;5080183;28;20545;-76
2022/02/27 08:29:12;;;;;;;19.17;8.25;;;;;;;-145.73;100.00;61044.97;5082479;28;20053;-77
2022/02/27 08:31:42;;;;;;;17.98;8.48;;;;;;;-145.73;100.00;61044.97;5081319;28;20562;-75
2022/02/27 08:34:11;;;;;;;21.23;8.73;;;;;;;-145.73;100.00;61044.97;5079964;28;20040;-76
2022/02/27 08:36:39;;;;;;;21.35;8.57;;;;;;;-145.73;100.00;61044.97;5082497;28;20483;-75
2022/02/27 08:39:09;;;;;;;15.93;7.35;;;;;;;-145.73;100.00;61044.97;5078039;28;20044;-76
2022/02/27 08:42:01;;;;;;;23.35;8.70;;;;;;;-145.73;100.00;61044.97;5083094;28;20050;-75
2022/02/27 08:44:30;;;;;;;16.75;7.70;;;;;;;-145.73;100.00;61044.97;5075834;28;20072;-74
2022/02/27 08:46:58;;;;;;;14.68;7.95;;;;;;;-145.73;100.00;61044.97;5079030;28;20062;-75
2022/02/27 08:49:28;;;;;;;15.05;8.38;;;;;;;-145.73;100.00;61044.97;5081542;28;20150;-74
2022/02/27 08:51:56;;;;;;;22.77;8.55;;;;;;;-145.73;100.00;61044.97;5077669;28;20246;-76
2022/02/27 08:54:24;;;;;;;12.35;7.47;;;;;;;-145.73;100.00;61044.97;5080992;28;20050;-76
2022/02/27 08:56:52;;;;;;;12.40;6.93;;;;;;;-145.73;100.00;61044.97;5083377;28;20143;-74
2022/02/27 08:59:20;;;;;;;12.25;7.28;;;;;;;-145.73;100.00;61044.97;5080914;28;20622;-72
2022/02/27 09:01:50;;;;;;;15.30;6.93;;;;;;;-145.73;100.00;61044.97;5079632;28;20086;-74
2022/02/27 09:04:19;;;;;;;11.13;6.65;;;;;;;-145.73;100.00;61044.97;5086442;28;20054;-73
2022/02/27 09:06:49;;;;;;;17.15;7.38;;;;;;;-145.73;100.00;61044.97;5079723;28;20064;-73
2022/02/27 09:09:17;;;;;;;16.20;6.40;;;;;;;-145.73;100.00;61044.97;5081508;28;20138;-73
2022/02/27 09:11:49;;;;;;;14.90;7.53;;;;;;;-145.73;100.00;61044.97;5081990;28;20054;-72
2022/02/27 09:14:17;;;;;;;16.05;6.43;;;;;;;-145.73;100.00;61044.97;5079960;28;20174;-73
2022/02/27 09:16:45;;;;;;;13.15;6.10;;;;;;;-145.73;100.00;61044.97;5079481;28;20047;-72
2022/02/27 09:19:13;;;;;;;14.48;6.55;;;;;;;-145.73;100.00;61044.97;5076558;28;20079;-73
2022/02/27 09:21:41;;;;;;;16.55;6.00;;;;;;;-145.73;100.00;61044.97;5078003;28;20040;-73
2022/02/27 09:24:10;;;;;;;12.80;7.68;;;;;;;-145.73;100.00;61044.97;5075360;28;20072;-73
2022/02/27 09:26:39;;;;;;;12.38;5.13;;;;;;;-145.73;100.00;61044.97;5079915;28;20048;-73
2022/02/27 09:29:07;;;;;;;14.02;6.53;;;;;;;-145.73;100.00;61044.97;5078809;28;20062;-76
2022/02/27 09:31:38;;;;;;;10.60;5.68;;;;;;;-145.73;100.00;61044.97;5079674;28;20130;-76
2022/02/27 09:34:07;;;;;;;15.55;6.00;;;;;;;-145.73;100.00;61044.97;5077534;28;20048;-76
2022/02/27 09:36:36;;;;;;;13.75;5.97;;;;;;;-145.73;100.00;61044.97;5080222;28;20044;-76
2022/02/27 09:39:04;;;;;;;15.93;6.90;;;;;;;-145.73;100.00;61044.97;5077166;28;20055;-76
2022/02/27 09:41:33;;;;;;;12.18;6.40;;;;;;;-145.73;100.00;61044.97;5078378;28;20047;-76
2022/02/27 09:44:03;;;;;;;13.70;5.55;;;;;;;-145.73;100.00;61044.97;5077467;28;20110;-77
2022/02/27 09:46:32;;;;;;;22.42;7.32;;;;;;;-145.73;100.00;61044.97;5074329;28;20177;-76
2022/02/27 09:49:01;;;;;;;13.45;6.20;;;;;;;-145.73;100.00;61044.97;5081864;28;20080;-77
2022/02/27 09:51:29;;;;;;;16.15;5.65;;;;;;;-145.73;100.00;61044.97;5077695;28;20508;-75
2022/02/27 09:53:57;;;;;;;12.85;5.35;;;;;;;-145.73;100.00;61044.97;5074117;28;20056;-75
2022/02/27 09:56:25;;;;;;;10.60;5.40;;;;;;;-145.73;100.00;61044.97;5075611;28;20039;-76
2022/02/27 09:58:55;;;;;;;15.35;5.50;;;;;;;-145.73;100.00;61044.97;5073842;28;20131;-76
2022/02/27 10:01:23;;;;;;;14.75;5.30;;;;;;;-145.73;100.00;61044.97;5076772;28;20043;-75
2022/02/27 10:03:51;;;;;;;9.75;4.65;;;;;;;-145.73;100.00;61044.97;5076927;28;20218;-75
2022/02/27 10:06:20;;;;;;;8.90;4.78;;;;;;;-145.73;100.00;61044.97;5076817;28;20148;-74
2022/02/27 10:08:55;;;;;;;12.90;4.82;;;;;;;-145.73;100.00;61044.97;5080732;28;20047;-76
2022/02/27 10:11:24;;;;;;;13.75;5.18;;;;;;;-145.73;100.00;61044.97;5079409;28;20083;-76
2022/02/27 10:13:56;;;;;;;8.88;4.38;;;;;;;-145.73;100.00;61044.97;5084301;28;20765;-76
2022/02/27 10:16:25;;;;;;;9.93;4.95;;;;;;;-145.73;100.00;61044.97;5078920;28;20087;-76
2022/02/27 10:18:54;;;;;;;12.73;4.50;;;;;;;-145.73;100.00;61044.97;5076911;28;20048;-76
2022/02/27 10:21:24;;;;;;;11.07;4.63;;;;;;;-145.73;100.00;61044.97;5075852;28;20434;-76
2022/02/27 10:24:17;;;;;;;12.70;4.30;;;;;;;-145.73;100.00;61044.97;5073466;28;20051;-76
2022/02/27 10:26:48;;;;;;;11.52;4.93;;;;;;;-145.73;100.00;61044.97;5080574;28;20136;-76
2022/02/27 10:29:19;;;;;;;9.55;3.78;;;;;;;-145.73;100.00;61044.97;5079132;28;20067;-74
2022/02/27 10:31:50;;;;;;;9.40;4.40;;;;;;;-145.73;100.00;61044.97;5079358;28;20171;-76
2022/02/27 10:34:21;;;;;;;8.32;4.13;;;;;;;-145.73;100.00;61044.97;5080994;28;20084;-76
2022/02/27 10:36:52;;;;;;;11.88;4.72;;;;;;;-145.73;100.00;61044.97;5079711;28;20617;-75
2022/02/27 10:39:32;;;;;;;14.38;4.82;;;;;;;-145.73;100.00;61044.97;5074155;28;20044;-75
2022/02/27 10:42:09;;;;;;;9.55;4.43;;;;;;;-145.73;100.00;61044.97;5078007;28;20052;-75
2022/02/27 10:44:39;;;;;;;10.25;4.30;;;;;;;-145.73;100.00;61044.97;5081867;28;20050;-75
2022/02/27 10:47:14;;;;;;;11.73;4.22;;;;;;;-145.73;100.00;61044.97;5077365;28;20690;-75
2022/02/27 10:49:43;;;;;;;12.95;4.57;;;;;;;-145.73;100.00;61044.97;5086220;28;20191;-76
2022/02/27 10:52:17;;;;;;;8.10;4.05;;;;;;;-145.73;100.00;61044.97;5077300;28;20051;-74
2022/02/27 10:55:09;;;;;;;11.00;4.05;;;;;;;-145.73;100.00;61044.97;5081813;28;20506;-74
2022/02/27 10:57:39;;;;;;;11.48;4.50;;;;;;;-145.73;100.00;61044.97;5076254;28;20071;-74
2022/02/27 11:00:18;;;;;;;10.65;4.35;;;;;;;-145.73;100.00;61044.97;5080579;28;20248;-74
2022/02/27 11:02:47;;;;;;;8.43;3.85;;;;;;;-145.73;100.00;61044.97;5074370;28;20114;-75
2022/02/27 11:05:18;;;;;;;11.30;4.88;;;;;;;-145.73;100.00;61044.97;5078837;28;20043;-75
2022/02/27 11:07:48;;;;;;;9.93;4.63;;;;;;;-145.73;100.00;61044.97;5079087;28;20051;-75
2022/02/27 11:10:18;;;;;;;6.93;2.95;;;;;;;-145.73;100.00;61044.97;5079524;28;20083;-73
2022/02/27 11:12:48;;;;;;;13.07;4.38;;;;;;;-145.73;100.00;61044.97;5079414;28;20059;-72
2022/02/27 11:15:20;;;;;;;10.60;3.85;;;;;;;-145.73;100.00;61044.97;5073679;28;20052;-73